PST,Max TemperatureF,Mean TemperatureF,Min TemperatureF,Max Dew PointF,MeanDew PointF,Min DewpointF,Max Humidity, Mean Humidity, Min Humidity, Max Sea Level PressureIn, Mean Sea Level PressureIn, Min Sea Level PressureIn, Max VisibilityMiles, Mean VisibilityMiles, Min VisibilityMiles, Max Wind SpeedMPH, Mean Wind SpeedMPH, Max Gust SpeedMPH,PrecipitationIn, CloudCover, Events, WindDirDegrees
2013-11-1,71,61,51,43,37,34,67,46,27,30.18,30.12,30.05,10,10,2,10,5,,0.00,0,,106
2013-11-2,71,61,51,45,38,32,67,46,27,30.05,29.98,29.90,10,10,10,9,6,,0.00,1,,136
2013-11-3,60,48,35,43,34,27,93,59,29,30.00,29.94,29.88,10,10,10,9,2,17,0.00,1,,292
2013-11-4,64,50,35,34,28,21,87,45,25,30.07,29.95,29.86,10,10,5,12,3,21,0.00,0,,328
2013-11-5,64,53,42,34,28,19,57,38,28,30.25,30.16,30.06,10,10,10,8,4,,0.00,0,,114
2013-11-6,68,55,42,39,34,32,87,42,28,30.29,30.24,30.11,10,10,7,13,5,21,0.00,0,,101
2013-11-7,73,63,53,37,32,28,48,35,19,30.20,30.14,30.09,10,10,10,12,5,,0.00,0,,122
2013-11-8,71,61,51,36,31,27,50,34,20,30.10,30.04,29.98,10,10,10,9,5,,0.00,0,,118
2013-11-9,71,61,51,39,36,34,58,43,29,30.05,30.03,30.01,10,10,9,9,4,,0.00,0,,110
2013-11-10,73,60,48,37,33,28,58,38,23,30.12,30.09,30.05,10,10,10,12,5,,0.00,0,,127
2013-11-11,71,58,46,32,28,21,54,32,18,30.20,30.13,30.09,10,10,2,12,3,,0.00,0,,112
2013-11-12,71,60,48,37,33,28,58,36,23,30.28,30.23,30.15,10,10,10,8,3,,0.00,1,,66
2013-11-13,73,60,46,39,36,34,62,43,27,30.25,30.17,30.09,10,10,10,9,2,,0.00,0,,124
2013-11-14,69,58,46,43,38,32,76,50,33,30.12,30.00,29.84,10,10,8,10,3,,0.00,0,,126
2013-11-15,62,50,37,41,35,30,93,59,32,29.84,29.77,29.71,10,10,10,10,2,,0.00,0,,281
2013-11-16,60,52,44,37,35,34,66,55,39,29.92,29.82,29.74,10,10,10,9,6,,0.00,0,,140
2013-11-17,62,50,39,43,37,34,81,61,42,30.09,30.02,29.92,10,10,10,9,5,,0.00,0,,113
2013-11-18,62,54,46,45,41,37,87,66,42,30.14,30.09,30.06,10,10,10,9,5,,0.00,1,,137
2013-11-19,57,52,46,52,48,45,100,89,72,30.10,30.04,29.96,10,8,2,10,4,17,0.65,7,,138
2013-11-20,53,52,50,54,52,48,100,99,88,29.96,29.90,29.85,10,4,0,13,7,16,0.59,8,,156
2013-11-21,62,55,46,50,36,23,100,59,29,30.03,29.93,29.88,10,10,1,15,4,24,0.02,2,,65
2013-11-22,69,52,35,28,18,12,60,27,12,30.06,30.01,29.95,10,10,7,13,3,22,0.00,0,,67
2013-11-23,60,48,35,43,36,28,100,67,39,30.12,30.04,30.00,10,9,0,7,2,,0.00,0,,223
2013-11-24,59,50,41,41,37,32,87,65,48,30.25,30.18,30.12,10,10,9,9,5,,0.00,0,,112
2013-11-25,62,52,42,41,38,34,87,65,39,30.33,30.28,30.25,10,10,10,9,5,,0.00,0,,111
2013-11-26,60,51,42,43,40,37,93,67,42,30.28,30.18,30.07,10,10,7,7,3,,0.00,0,,107
2013-11-27,66,55,44,43,37,34,82,53,30,30.06,29.95,29.88,10,10,1,8,3,,0.00,0,,103
2013-11-28,66,58,51,39,36,34,62,47,32,30.09,29.97,29.89,10,10,10,9,6,,0.00,0,,98
2013-11-29,66,55,44,41,37,36,76,54,32,30.22,30.15,30.09,10,10,10,10,6,,0.00,0,,110
2013-11-30,64,54,44,41,38,34,81,57,37,30.28,30.24,30.19,10,10,10,9,5,,0.00,0,,106